Time;durP1;ratioP1;P1;durP2;ratioP2;P2;SDS_P1;SDS_P2;PMS_P1;PMS_P2;Temp;Humidity;BMP_temperature;BMP_pressure;BME280_temperature;BME280_humidity;BME280_pressure;Samples;Min_cycle;Max_cycle;Signal;HPM_P1;HPM_P2
2022/02/22 00:00:58;;;;;;;46.72;42.92;;;;;;;;;;6205744;23;20161;-96
2022/02/22 00:03:26;;;;;;;48.08;43.20;;;;;;;;;;6203091;23;20173;-96
2022/02/22 00:08:19;;;;;;;47.47;43.87;;;;;;;;;;6206681;23;20206;-96
2022/02/22 00:13:16;;;;;;;43.08;39.38;;;;;;;;;;6208578;23;20221;-96
2022/02/22 00:15:56;;;;;;;43.10;39.75;;;;;;;;;;6235167;23;20168;-96
2022/02/22 00:18:23;;;;;;;40.25;37.10;;;;;;;;;;6219877;22;20193;-95
2022/02/22 00:20:51;;;;;;;38.88;35.50;;;;;;;;;;6211652;22;20224;-96
2022/02/22 00:23:22;;;;;;;41.30;36.83;;;;;;;;;;6207839;23;20254;-96
2022/02/22 00:25:49;;;;;;;38.90;34.70;;;;;;;;;;6184209;23;20272;-96
2022/02/22 00:28:20;;;;;;;38.92;35.95;;;;;;;;;;6205194;23;20173;-96
2022/02/22 00:30:49;;;;;;;40.13;36.60;;;;;;;;;;6198362;23;20169;-96
2022/02/22 00:33:17;;;;;;;36.67;34.25;;;;;;;;;;6176853;22;21661;-96
2022/02/22 00:35:45;;;;;;;37.30;33.20;;;;;;;;;;6175401;23;20198;-96
2022/02/22 00:38:12;;;;;;;36.63;32.60;;;;;;;;;;6170882;23;20166;-96
2022/02/22 00:40:40;;;;;;;36.22;33.00;;;;;;;;;;6171499;23;20190;-96
2022/02/22 00:43:08;;;;;;;36.53;32.58;;;;;;;;;;6177706;23;20170;-96
2022/02/22 00:45:36;;;;;;;39.00;32.88;;;;;;;;;;6174707;23;20178;-96
2022/02/22 00:48:05;;;;;;;39.97;32.20;;;;;;;;;;6146767;23;20187;-96
2022/02/22 00:50:34;;;;;;;33.85;30.65;;;;;;;;;;6176415;22;20209;-96
2022/02/22 00:53:03;;;;;;;39.42;32.05;;;;;;;;;;6160344;23;20601;-96
2022/02/22 00:55:32;;;;;;;34.15;31.05;;;;;;;;;;6168465;23;20175;-96
2022/02/22 00:57:59;;;;;;;33.47;29.35;;;;;;;;;;6189354;23;20150;-96
2022/02/22 01:00:27;;;;;;;29.90;27.35;;;;;;;;;;6203694;23;20166;-96
2022/02/22 01:02:54;;;;;;;29.35;26.75;;;;;;;;;;6230058;23;20204;-96
2022/02/22 01:05:24;;;;;;;28.58;25.92;;;;;;;;;;6235214;23;20193;-96
2022/02/22 01:07:54;;;;;;;35.65;27.35;;;;;;;;;;6216135;22;20216;-96
2022/02/22 01:10:22;;;;;;;30.05;26.73;;;;;;;;;;6197095;23;20268;-96
2022/02/22 01:12:49;;;;;;;32.10;28.67;;;;;;;;;;6192388;23;20177;-96
2022/02/22 01:15:17;;;;;;;35.38;24.85;;;;;;;;;;6200239;22;20531;-96
2022/02/22 01:17:44;;;;;;;36.70;24.70;;;;;;;;;;6202767;23;20196;-96
2022/02/22 01:20:12;;;;;;;22.92;20.88;;;;;;;;;;6205307;23;20599;-96
2022/02/22 01:22:41;;;;;;;23.08;20.90;;;;;;;;;;6202630;23;20182;-96
2022/02/22 01:25:10;;;;;;;30.55;20.65;;;;;;;;;;6201574;23;20177;-96
2022/02/22 01:27:40;;;;;;;20.23;18.25;;;;;;;;;;6181224;23;20216;-96
2022/02/22 01:30:08;;;;;;;20.98;19.17;;;;;;;;;;6205343;23;20465;-96
2022/02/22 01:32:36;;;;;;;21.00;19.15;;;;;;;;;;6199322;23;20172;-96
2022/02/22 01:35:03;;;;;;;26.92;19.92;;;;;;;;;;6198561;23;20166;-96
2022/02/22 01:37:31;;;;;;;20.33;18.83;;;;;;;;;;6202938;23;20181;-95
2022/02/22 01:40:00;;;;;;;23.90;21.27;;;;;;;;;;6153177;23;20197;-96
2022/02/22 01:42:27;;;;;;;20.20;18.30;;;;;;;;;;6187416;23;20217;-96
2022/02/22 01:44:55;;;;;;;32.28;21.20;;;;;;;;;;6198042;23;20174;-96
2022/02/22 01:47:22;;;;;;;25.27;19.60;;;;;;;;;;6194379;23;20198;-96
2022/02/22 01:49:50;;;;;;;20.45;18.42;;;;;;;;;;6192747;23;20166;-96
2022/02/22 01:52:18;;;;;;;20.40;18.30;;;;;;;;;;6199012;23;20480;-96
2022/02/22 01:54:45;;;;;;;18.23;16.80;;;;;;;;;;6196577;23;20150;-96
2022/02/22 01:57:14;;;;;;;18.75;17.23;;;;;;;;;;6203333;23;20257;-96
2022/02/22 01:59:43;;;;;;;21.58;19.02;;;;;;;;;;6202059;23;20249;-96
2022/02/22 02:02:11;;;;;;;33.28;21.35;;;;;;;;;;6192806;23;20166;-96
2022/02/22 02:04:38;;;;;;;20.70;18.77;;;;;;;;;;6203393;23;20198;-96
2022/02/22 02:07:06;;;;;;;21.58;19.55;;;;;;;;;;6188289;23;20205;-96
2022/02/22 02:09:33;;;;;;;21.15;19.05;;;;;;;;;;6237352;23;20175;-96
2022/02/22 02:12:02;;;;;;;26.38;19.45;;;;;;;;;;6228794;23;20172;-96
2022/02/22 02:14:31;;;;;;;23.75;19.25;;;;;;;;;;6232348;23;20161;-96
2022/02/22 02:16:59;;;;;;;33.13;18.92;;;;;;;;;;6234850;23;20159;-96
2022/02/22 02:19:26;;;;;;;24.90;19.17;;;;;;;;;;6230879;23;20173;-96
2022/02/22 02:21:58;;;;;;;17.27;15.98;;;;;;;;;;6232699;23;20172;-96
2022/02/22 02:24:27;;;;;;;20.48;17.63;;;;;;;;;;6229335;23;20165;-96
2022/02/22 02:26:58;;;;;;;19.08;17.77;;;;;;;;;;6225167;23;20205;-96
2022/02/22 02:29:30;;;;;;;31.35;19.52;;;;;;;;;;6230984;23;20172;-96
2022/02/22 02:31:58;;;;;;;28.45;19.10;;;;;;;;;;6233183;22;20178;-96
2022/02/22 02:34:26;;;;;;;18.90;17.23;;;;;;;;;;6230255;23;20161;-96
2022/02/22 02:36:54;;;;;;;27.45;19.45;;;;;;;;;;6222661;23;20171;-96
2022/02/22 02:39:23;;;;;;;19.00;17.23;;;;;;;;;;6220504;23;20247;-96
2022/02/22 02:41:51;;;;;;;27.25;19.08;;;;;;;;;;6225714;23;20165;-96
2022/02/22 02:47:06;;;;;;;19.40;17.67;;;;;;;;;;6223034;23;20232;-96
2022/02/22 02:49:33;;;;;;;19.98;18.08;;;;;;;;;;6224270;23;20177;-96
2022/02/22 02:52:00;;;;;;;21.38;17.60;;;;;;;;;;6194943;23;20181;-96
2022/02/22 02:54:29;;;;;;;22.00;19.80;;;;;;;;;;6222542;23;20443;-96
2022/02/22 02:56:57;;;;;;;23.20;16.90;;;;;;;;;;6222081;23;20176;-96
2022/02/22 02:59:24;;;;;;;28.92;18.95;;;;;;;;;;6221413;23;20192;-96
2022/02/22 03:01:52;;;;;;;20.48;18.45;;;;;;;;;;6218328;23;20165;-96
2022/02/22 03:04:19;;;;;;;25.35;19.80;;;;;;;;;;6220593;23;20607;-96
2022/02/22 03:06:47;;;;;;;29.58;18.75;;;;;;;;;;6218282;23;20194;-96
2022/02/22 03:09:14;;;;;;;28.90;19.90;;;;;;;;;;6222544;23;20165;-96
2022/02/22 03:11:44;;;;;;;17.45;15.85;;;;;;;;;;6196163;23;20607;-96
2022/02/22 03:14:11;;;;;;;31.25;18.70;;;;;;;;;;6220802;23;20173;-96
2022/02/22 03:16:39;;;;;;;22.08;18.08;;;;;;;;;;6197293;23;20235;-96
2022/02/22 03:19:06;;;;;;;38.65;20.38;;;;;;;;;;6218469;23;20483;-96
2022/02/22 03:21:33;;;;;;;23.98;18.30;;;;;;;;;;6220654;23;20176;-96
2022/02/22 03:24:02;;;;;;;20.25;18.35;;;;;;;;;;6222498;23;20165;-96
2022/02/22 03:26:29;;;;;;;31.63;21.05;;;;;;;;;;6224523;23;20184;-96
2022/02/22 03:28:59;;;;;;;21.42;17.85;;;;;;;;;;6224387;23;20165;-96
2022/02/22 03:31:27;;;;;;;32.97;19.05;;;;;;;;;;6221269;23;20165;-96
2022/02/22 03:34:02;;;;;;;31.38;18.38;;;;;;;;;;6222393;22;20200;-96
2022/02/22 03:36:30;;;;;;;24.27;19.50;;;;;;;;;;6179652;23;20250;-96
2022/02/22 03:38:58;;;;;;;29.50;18.25;;;;;;;;;;6181382;23;20210;-96
2022/02/22 03:41:27;;;;;;;27.80;18.92;;;;;;;;;;6180543;23;20218;-96
2022/02/22 03:43:55;;;;;;;24.02;18.77;;;;;;;;;;6174652;23;20194;-96
2022/02/22 03:46:24;;;;;;;28.70;17.75;;;;;;;;;;6177101;23;20170;-96
2022/02/22 03:48:51;;;;;;;32.85;17.85;;;;;;;;;;6174107;23;20169;-96
2022/02/22 03:51:19;;;;;;;23.73;18.48;;;;;;;;;;6171464;23;20178;-96
2022/02/22 03:53:47;;;;;;;19.40;17.40;;;;;;;;;;6178948;23;20159;-96
2022/02/22 03:56:14;;;;;;;27.23;19.25;;;;;;;;;;6172383;23;20167;-96
2022/02/22 03:58:41;;;;;;;26.90;19.05;;;;;;;;;;6178423;23;20186;-96
2022/02/22 04:01:12;;;;;;;21.23;18.35;;;;;;;;;;6180883;23;20173;-96
2022/02/22 04:03:41;;;;;;;30.42;19.30;;;;;;;;;;6174339;23;20163;-96
2022/02/22 04:06:08;;;;;;;22.83;18.75;;;;;;;;;;6178503;23;20223;-96
2022/02/22 04:08:36;;;;;;;29.58;19.42;;;;;;;;;;6198114;23;20208;-96
2022/02/22 04:11:04;;;;;;;19.48;17.55;;;;;;;;;;6205886;23;20181;-96
2022/02/22 04:13:31;;;;;;;17.08;15.57;;;;;;;;;;6210277;23;20228;-96
2022/02/22 04:18:27;;;;;;;20.70;17.60;;;;;;;;;;6211842;23;20205;-96
2022/02/22 04:20:56;;;;;;;29.50;17.90;;;;;;;;;;6210785;23;20584;-96
2022/02/22 04:23:24;;;;;;;19.90;18.05;;;;;;;;;;6209071;23;20154;-96
2022/02/22 04:25:53;;;;;;;35.20;20.13;;;;;;;;;;6212226;23;20216;-96
2022/02/22 04:28:21;;;;;;;25.02;18.80;;;;;;;;;;6211252;23;20216;-96
2022/02/22 04:30:50;;;;;;;25.92;18.70;;;;;;;;;;6206772;23;20189;-96
2022/02/22 04:33:18;;;;;;;28.10;17.85;;;;;;;;;;6211555;23;20222;-96
2022/02/22 04:35:45;;;;;;;18.90;17.23;;;;;;;;;;6204294;23;20177;-96
2022/02/22 04:40:40;;;;;;;19.43;17.70;;;;;;;;;;6197119;22;20216;-96
2022/02/22 04:43:08;;;;;;;22.23;18.73;;;;;;;;;;6209268;23;20260;-96
2022/02/22 04:45:36;;;;;;;23.13;18.30;;;;;;;;;;6181221;23;20212;-96
2022/02/22 04:48:04;;;;;;;18.88;16.45;;;;;;;;;;6185092;23;20189;-90
2022/02/22 04:50:31;;;;;;;27.40;19.48;;;;;;;;;;6187775;23;20161;-96
2022/02/22 05:11:09;;;;;;;27.00;20.33;;;;;;;;;;6213019;22;20213;-95
2022/02/22 05:55:12;;;;;;;23.70;18.52;;;;;;;;;;6191518;23;20229;-96
2022/02/22 05:57:39;;;;;;;22.67;18.33;;;;;;;;;;6213338;23;20150;-91
2022/02/22 06:13:11;;;;;;;25.98;18.85;;;;;;;;;;6186481;23;21240;-96
2022/02/22 06:15:39;;;;;;;25.65;19.38;;;;;;;;;;6177499;23;20202;-96
2022/02/22 06:18:06;;;;;;;24.55;19.90;;;;;;;;;;6174192;23;20166;-96
2022/02/22 06:20:35;;;;;;;29.63;19.98;;;;;;;;;;6174108;23;20150;-96
2022/02/22 06:23:03;;;;;;;22.17;19.20;;;;;;;;;;6179214;23;20208;-96
2022/02/22 06:25:31;;;;;;;29.90;19.40;;;;;;;;;;6201573;23;20161;-96
2022/02/22 06:27:58;;;;;;;32.03;19.70;;;;;;;;;;6207124;23;20216;-96
2022/02/22 06:30:27;;;;;;;35.65;18.38;;;;;;;;;;6202442;23;20170;-96
2022/02/22 06:32:55;;;;;;;29.63;18.60;;;;;;;;;;6205911;23;20180;-96
2022/02/22 06:35:23;;;;;;;24.73;19.23;;;;;;;;;;6182155;23;20166;-96
2022/02/22 06:37:51;;;;;;;25.60;18.38;;;;;;;;;;6203200;23;20196;-96
2022/02/22 06:40:18;;;;;;;30.00;18.38;;;;;;;;;;6232453;23;20607;-96
2022/02/22 06:42:46;;;;;;;32.55;17.60;;;;;;;;;;6229682;23;20173;-96
2022/02/22 06:45:13;;;;;;;27.48;18.77;;;;;;;;;;6191572;23;20165;-94
2022/02/22 06:47:43;;;;;;;34.03;19.08;;;;;;;;;;6190963;23;20204;-94
2022/02/22 06:50:11;;;;;;;31.88;18.83;;;;;;;;;;6218143;23;20629;-93
2022/02/22 06:52:40;;;;;;;21.58;18.98;;;;;;;;;;6217592;23;20211;-94
2022/02/22 06:55:08;;;;;;;25.73;18.80;;;;;;;;;;6166752;23;20252;-93
2022/02/22 06:57:35;;;;;;;32.50;19.73;;;;;;;;;;6217421;23;20169;-92
2022/02/22 07:00:06;;;;;;;27.52;19.85;;;;;;;;;;6217076;23;20176;-93
2022/02/22 07:02:33;;;;;;;29.60;19.42;;;;;;;;;;6216840;23;20200;-91
2022/02/22 07:05:00;;;;;;;23.80;18.60;;;;;;;;;;6216161;23;20196;-92
2022/02/22 07:07:28;;;;;;;19.25;17.63;;;;;;;;;;6216833;23;20184;-92
2022/02/22 07:09:56;;;;;;;31.30;19.67;;;;;;;;;;6216691;23;20164;-92
2022/02/22 07:12:23;;;;;;;24.10;18.08;;;;;;;;;;6215869;23;20184;-92
2022/02/22 07:14:51;;;;;;;19.38;17.52;;;;;;;;;;6217042;23;20165;-92
2022/02/22 07:17:21;;;;;;;19.42;17.35;;;;;;;;;;6217234;23;20204;-93
2022/02/22 07:19:48;;;;;;;18.85;16.85;;;;;;;;;;6216658;23;20572;-92
2022/02/22 07:22:15;;;;;;;19.90;16.67;;;;;;;;;;6217393;23;20171;-90
2022/02/22 07:24:43;;;;;;;21.20;16.88;;;;;;;;;;6217359;23;20232;-92
2022/02/22 07:27:10;;;;;;;31.95;20.20;;;;;;;;;;6217682;23;20164;-92
2022/02/22 07:29:37;;;;;;;27.80;17.67;;;;;;;;;;6217346;23;20165;-92
2022/02/22 07:32:05;;;;;;;23.70;18.67;;;;;;;;;;6216941;23;20199;-93
2022/02/22 07:34:34;;;;;;;29.20;18.92;;;;;;;;;;6217024;23;20171;-92
2022/02/22 07:37:02;;;;;;;23.15;18.48;;;;;;;;;;6217139;23;20165;-92
2022/02/22 07:39:29;;;;;;;32.38;20.00;;;;;;;;;;6217382;23;20169;-92
2022/02/22 07:41:56;;;;;;;20.10;17.80;;;;;;;;;;6190167;23;20181;-92
2022/02/22 07:44:24;;;;;;;21.27;18.17;;;;;;;;;;6217081;23;20185;-92
2022/02/22 07:46:51;;;;;;;23.25;18.30;;;;;;;;;;6217327;23;20172;-92
2022/02/22 07:49:18;;;;;;;23.50;18.95;;;;;;;;;;6216542;23;20654;-93
2022/02/22 07:51:47;;;;;;;18.88;17.38;;;;;;;;;;6217142;23;20633;-93
2022/02/22 07:54:14;;;;;;;24.75;18.25;;;;;;;;;;6216943;23;20176;-93
2022/02/22 07:56:43;;;;;;;26.05;18.85;;;;;;;;;;6216913;23;20172;-92
2022/02/22 07:59:10;;;;;;;30.58;19.95;;;;;;;;;;6216217;23;20180;-93
2022/02/22 08:01:38;;;;;;;19.10;17.60;;;;;;;;;;6217538;23;20165;-92
2022/02/22 08:04:05;;;;;;;28.45;18.20;;;;;;;;;;6216915;23;20165;-92
2022/02/22 08:06:33;;;;;;;20.60;18.20;;;;;;;;;;6191311;23;20503;-92
2022/02/22 08:09:02;;;;;;;21.75;18.08;;;;;;;;;;6216954;23;20571;-92
2022/02/22 08:11:31;;;;;;;39.55;19.77;;;;;;;;;;6217083;23;20219;-93
2022/02/22 08:14:00;;;;;;;18.73;17.10;;;;;;;;;;6216613;23;20192;-92
2022/02/22 08:16:27;;;;;;;22.25;17.80;;;;;;;;;;6216490;23;20168;-92
2022/02/22 08:18:58;;;;;;;27.38;17.98;;;;;;;;;;6216500;23;20862;-89
2022/02/22 08:21:25;;;;;;;21.45;17.67;;;;;;;;;;6220359;23;20193;-91
2022/02/22 08:23:53;;;;;;;28.80;18.30;;;;;;;;;;6220478;23;20208;-93
2022/02/22 08:26:22;;;;;;;25.45;17.80;;;;;;;;;;6221616;23;20168;-94
2022/02/22 08:28:49;;;;;;;27.25;17.02;;;;;;;;;;6217013;23;20200;-95
2022/02/22 08:31:17;;;;;;;22.38;17.40;;;;;;;;;;6216722;23;20161;-95
2022/02/22 08:33:44;;;;;;;16.67;15.60;;;;;;;;;;6216423;23;20179;-96
2022/02/22 08:36:11;;;;;;;24.77;17.60;;;;;;;;;;6216565;23;20169;-95
2022/02/22 08:38:39;;;;;;;28.23;19.65;;;;;;;;;;6216554;23;20610;-95
2022/02/22 08:41:06;;;;;;;33.65;20.63;;;;;;;;;;6217400;23;20161;-91
2022/02/22 08:43:35;;;;;;;26.08;19.27;;;;;;;;;;6219007;23;20171;-87
2022/02/22 08:46:03;;;;;;;18.63;16.73;;;;;;;;;;6215958;23;20225;-93
2022/02/22 08:48:30;;;;;;;21.42;18.20;;;;;;;;;;6216102;23;20197;-93
2022/02/22 08:50:57;;;;;;;21.58;19.25;;;;;;;;;;6216828;23;20168;-93
2022/02/22 08:53:25;;;;;;;26.85;19.70;;;;;;;;;;6216537;23;20177;-94
2022/02/22 08:55:52;;;;;;;19.75;17.70;;;;;;;;;;6216930;23;20165;-94
2022/02/22 08:58:19;;;;;;;31.20;18.65;;;;;;;;;;6216785;23;20165;-93
2022/02/22 09:00:48;;;;;;;21.27;19.10;;;;;;;;;;6216550;23;20264;-93
2022/02/22 09:03:16;;;;;;;20.65;18.45;;;;;;;;;;6216407;23;20173;-93
2022/02/22 09:05:43;;;;;;;24.35;18.23;;;;;;;;;;6215922;23;20168;-93
2022/02/22 09:08:10;;;;;;;20.58;18.38;;;;;;;;;;6215608;23;20228;-95
2022/02/22 09:10:39;;;;;;;27.02;19.33;;;;;;;;;;6216021;23;20172;-94
2022/02/22 09:13:06;;;;;;;31.67;20.48;;;;;;;;;;6216325;23;20165;-93
2022/02/22 09:15:34;;;;;;;29.77;18.48;;;;;;;;;;6219162;23;20179;-92
2022/02/22 09:18:02;;;;;;;27.23;19.95;;;;;;;;;;6216688;23;20172;-90
2022/02/22 09:20:30;;;;;;;20.45;16.83;;;;;;;;;;6215965;23;20214;-93
2022/02/22 09:22:57;;;;;;;22.23;19.48;;;;;;;;;;6216766;23;20200;-91
2022/02/22 09:25:25;;;;;;;27.13;18.35;;;;;;;;;;6216464;23;20169;-92
2022/02/22 09:27:53;;;;;;;27.38;19.00;;;;;;;;;;6216049;23;20165;-92
2022/02/22 09:30:21;;;;;;;29.33;18.83;;;;;;;;;;6216095;23;20184;-92
2022/02/22 09:32:49;;;;;;;21.98;18.80;;;;;;;;;;6216136;23;20165;-92
2022/02/22 09:35:19;;;;;;;31.30;21.50;;;;;;;;;;6215460;23;20177;-91
2022/02/22 09:37:46;;;;;;;21.67;18.55;;;;;;;;;;6217955;23;20177;-91
2022/02/22 09:40:14;;;;;;;25.15;21.10;;;;;;;;;;6219769;23;20172;-94
2022/02/22 09:42:42;;;;;;;23.20;20.23;;;;;;;;;;6218762;23;20171;-84
2022/02/22 09:45:09;;;;;;;25.38;20.33;;;;;;;;;;6217554;23;20184;-87
2022/02/22 09:47:37;;;;;;;20.42;18.63;;;;;;;;;;6218300;23;20161;-89
2022/02/22 09:50:05;;;;;;;29.60;22.33;;;;;;;;;;6218221;23;20195;-91
2022/02/22 09:52:34;;;;;;;24.70;20.55;;;;;;;;;;6191972;23;20177;-90
2022/02/22 09:55:01;;;;;;;26.13;21.38;;;;;;;;;;6218573;23;20165;-89
2022/02/22 09:57:29;;;;;;;30.73;21.00;;;;;;;;;;6218225;23;20201;-86
2022/02/22 09:59:56;;;;;;;23.85;19.75;;;;;;;;;;6218044;23;20172;-89
2022/02/22 10:02:23;;;;;;;22.55;19.75;;;;;;;;;;6217754;23;20248;-87
2022/02/22 10:04:51;;;;;;;28.95;20.98;;;;;;;;;;6217566;23;20169;-90
2022/02/22 10:07:18;;;;;;;30.67;21.98;;;;;;;;;;6218042;23;20168;-91
2022/02/22 10:09:55;;;;;;;32.00;21.52;;;;;;;;;;6217558;23;20204;-86
2022/02/22 10:12:34;;;;;;;23.13;20.65;;;;;;;;;;6217635;23;20179;-92
2022/02/22 10:15:03;;;;;;;23.33;20.95;;;;;;;;;;6217871;23;20200;-90
2022/02/22 10:17:36;;;;;;;25.90;23.00;;;;;;;;;;6217622;23;20637;-91
2022/02/22 10:20:04;;;;;;;27.02;20.13;;;;;;;;;;6217202;23;20259;-92
2022/02/22 10:22:32;;;;;;;31.95;19.83;;;;;;;;;;6217847;23;20173;-92
2022/02/22 10:25:09;;;;;;;21.80;19.67;;;;;;;;;;6218007;23;20165;-91
2022/02/22 10:27:43;;;;;;;30.33;19.13;;;;;;;;;;6218282;23;20160;-91
2022/02/22 10:30:24;;;;;;;20.48;18.48;;;;;;;;;;6217659;23;20238;-91
2022/02/22 10:32:52;;;;;;;24.15;21.48;;;;;;;;;;6217856;23;20530;-91
2022/02/22 10:35:34;;;;;;;21.02;18.00;;;;;;;;;;6218108;23;20194;-91
2022/02/22 10:38:12;;;;;;;19.35;17.40;;;;;;;;;;6212837;23;20177;-91
2022/02/22 10:40:41;;;;;;;21.17;18.98;;;;;;;;;;6217732;23;20172;-91
2022/02/22 10:43:09;;;;;;;22.73;20.45;;;;;;;;;;6216651;23;20209;-91
2022/02/22 10:45:36;;;;;;;20.98;19.15;;;;;;;;;;6217520;23;20165;-92
2022/02/22 10:48:04;;;;;;;23.73;19.73;;;;;;;;;;6217387;23;20167;-91
2022/02/22 10:50:32;;;;;;;26.55;21.52;;;;;;;;;;6217562;23;20619;-91
2022/02/22 10:53:11;;;;;;;29.20;21.63;;;;;;;;;;6217423;23;20173;-92
2022/02/22 10:55:39;;;;;;;32.33;21.27;;;;;;;;;;6217556;23;20200;-91
2022/02/22 10:58:09;;;;;;;24.17;21.90;;;;;;;;;;6191969;23;20165;-92
2022/02/22 11:00:36;;;;;;;23.88;21.17;;;;;;;;;;6217693;23;20416;-92
2022/02/22 11:03:05;;;;;;;20.77;18.97;;;;;;;;;;6217102;23;20172;-91
2022/02/22 11:05:32;;;;;;;21.43;19.90;;;;;;;;;;6217340;23;20419;-92
2022/02/22 11:08:00;;;;;;;25.85;21.10;;;;;;;;;;6217228;23;20782;-92
2022/02/22 11:10:29;;;;;;;20.95;19.10;;;;;;;;;;6217590;23;20208;-92
2022/02/22 11:13:00;;;;;;;21.17;19.13;;;;;;;;;;6217237;23;20172;-91
2022/02/22 11:15:38;;;;;;;27.30;21.20;;;;;;;;;;6217539;23;20200;-91
2022/02/22 11:18:16;;;;;;;23.98;20.83;;;;;;;;;;6217445;23;20428;-91
2022/02/22 11:20:43;;;;;;;22.17;20.33;;;;;;;;;;6216969;23;20488;-91
2022/02/22 11:23:15;;;;;;;23.02;20.65;;;;;;;;;;6216802;23;20429;-91
2022/02/22 11:25:46;;;;;;;19.75;18.35;;;;;;;;;;6191215;23;20503;-91
2022/02/22 11:28:14;;;;;;;22.48;20.52;;;;;;;;;;6217762;23;20161;-91
2022/02/22 11:30:43;;;;;;;21.70;19.77;;;;;;;;;;6216555;23;20208;-91
2022/02/22 11:33:13;;;;;;;20.73;19.23;;;;;;;;;;6216562;23;20635;-91
2022/02/22 11:35:47;;;;;;;23.50;19.20;;;;;;;;;;6217689;23;20173;-92
2022/02/22 11:38:15;;;;;;;25.20;21.13;;;;;;;;;;6217612;23;20396;-90
2022/02/22 11:40:43;;;;;;;20.27;18.80;;;;;;;;;;6217026;23;20395;-93
2022/02/22 11:43:13;;;;;;;21.05;19.10;;;;;;;;;;6216698;23;20399;-92
2022/02/22 11:45:41;;;;;;;23.98;22.25;;;;;;;;;;6190966;23;20261;-92
2022/02/22 11:48:18;;;;;;;25.42;19.83;;;;;;;;;;6217198;23;20168;-92
2022/02/22 11:50:46;;;;;;;21.90;19.70;;;;;;;;;;6190622;23;20291;-91
2022/02/22 11:53:19;;;;;;;21.08;19.48;;;;;;;;;;6217509;23;20165;-92
2022/02/22 11:55:48;;;;;;;23.07;20.67;;;;;;;;;;6217000;23;20220;-91
2022/02/22 11:58:22;;;;;;;20.55;19.13;;;;;;;;;;6216666;23;20422;-92
2022/02/22 12:00:50;;;;;;;22.37;20.30;;;;;;;;;;6191108;23;20499;-91
2022/02/22 12:03:21;;;;;;;19.80;18.50;;;;;;;;;;6216824;23;20430;-91
2022/02/22 12:05:57;;;;;;;21.33;19.67;;;;;;;;;;6216777;23;20173;-92
2022/02/22 12:08:25;;;;;;;21.77;19.50;;;;;;;;;;6217054;23;20413;-92
2022/02/22 12:10:53;;;;;;;21.53;19.67;;;;;;;;;;6216853;23;20430;-90
2022/02/22 12:13:21;;;;;;;22.95;20.92;;;;;;;;;;6216409;23;20420;-92
2022/02/22 12:15:49;;;;;;;21.60;19.73;;;;;;;;;;6216402;23;20172;-91
2022/02/22 12:18:17;;;;;;;22.67;20.60;;;;;;;;;;6216707;23;20165;-91
2022/02/22 12:20:47;;;;;;;22.73;20.53;;;;;;;;;;6190670;23;20180;-92
2022/02/22 12:23:18;;;;;;;20.80;19.17;;;;;;;;;;6216217;23;20436;-92
2022/02/22 12:25:46;;;;;;;20.40;18.70;;;;;;;;;;6217176;23;20378;-92
2022/02/22 12:28:13;;;;;;;34.87;20.63;;;;;;;;;;6216193;23;20418;-92
2022/02/22 12:30:41;;;;;;;29.13;22.67;;;;;;;;;;6216257;23;20533;-91
2022/02/22 12:33:09;;;;;;;24.65;19.58;;;;;;;;;;6216946;23;20215;-91
2022/02/22 12:35:38;;;;;;;20.37;18.57;;;;;;;;;;6216762;23;20173;-92
2022/02/22 12:38:14;;;;;;;23.60;21.50;;;;;;;;;;6216691;23;20371;-92
2022/02/22 12:40:42;;;;;;;21.33;19.40;;;;;;;;;;6217251;23;20168;-92
2022/02/22 12:43:10;;;;;;;22.00;19.80;;;;;;;;;;6217226;23;20390;-92
2022/02/22 12:45:38;;;;;;;21.13;19.53;;;;;;;;;;6190162;23;20235;-92
2022/02/22 12:48:06;;;;;;;21.73;20.02;;;;;;;;;;6217116;23;20736;-91
2022/02/22 12:50:34;;;;;;;21.90;20.13;;;;;;;;;;6216073;23;20200;-91
2022/02/22 12:53:02;;;;;;;20.48;18.60;;;;;;;;;;6216991;23;20168;-91
2022/02/22 12:55:31;;;;;;;20.93;19.03;;;;;;;;;;6216278;23;20219;-91
2022/02/22 12:58:08;;;;;;;22.17;19.90;;;;;;;;;;6189898;23;20864;-92
2022/02/22 13:00:35;;;;;;;21.27;19.30;;;;;;;;;;6216406;23;20211;-91
2022/02/22 13:03:08;;;;;;;20.77;19.65;;;;;;;;;;6215929;23;20420;-92
2022/02/22 13:05:38;;;;;;;34.75;20.90;;;;;;;;;;6217003;23;20181;-92
2022/02/22 13:08:06;;;;;;;22.75;20.58;;;;;;;;;;6216468;23;20220;-91
2022/02/22 13:10:42;;;;;;;22.10;19.97;;;;;;;;;;6216196;23;20193;-92
2022/02/22 13:13:11;;;;;;;21.27;19.70;;;;;;;;;;6216323;23;20397;-92
2022/02/22 13:15:38;;;;;;;35.90;21.20;;;;;;;;;;6216484;23;20396;-92
2022/02/22 13:18:12;;;;;;;23.23;21.23;;;;;;;;;;6217365;23;20160;-89
2022/02/22 13:20:40;;;;;;;22.50;20.37;;;;;;;;;;6216648;23;20403;-90
2022/02/22 13:23:10;;;;;;;22.65;20.58;;;;;;;;;;6216615;23;20443;-91
2022/02/22 13:25:38;;;;;;;22.40;20.60;;;;;;;;;;6216326;23;20165;-92
2022/02/22 13:28:07;;;;;;;23.60;21.97;;;;;;;;;;6216463;23;20371;-92
2022/02/22 13:30:35;;;;;;;21.42;19.77;;;;;;;;;;6215631;23;20928;-92
2022/02/22 13:33:04;;;;;;;20.17;18.50;;;;;;;;;;6215670;23;20499;-92
2022/02/22 13:35:32;;;;;;;20.25;18.23;;;;;;;;;;6190643;23;20416;-92
2022/02/22 13:37:59;;;;;;;20.60;19.00;;;;;;;;;;6216739;23;20168;-92
2022/02/22 13:40:30;;;;;;;21.02;19.13;;;;;;;;;;6216344;23;20191;-90
2022/02/22 13:43:01;;;;;;;22.40;20.10;;;;;;;;;;6216517;23;20183;-91
2022/02/22 13:45:32;;;;;;;24.70;21.00;;;;;;;;;;6216935;23;20185;-91
2022/02/22 13:48:03;;;;;;;28.70;21.30;;;;;;;;;;6216565;23;20191;-90
2022/02/22 13:50:30;;;;;;;23.65;21.70;;;;;;;;;;6216230;23;20185;-91
2022/02/22 13:53:00;;;;;;;27.83;25.10;;;;;;;;;;6216391;23;20165;-91
2022/02/22 13:55:28;;;;;;;29.23;26.75;;;;;;;;;;6216360;23;20243;-91
2022/02/22 13:57:59;;;;;;;24.52;22.60;;;;;;;;;;6215795;23;20180;-91
2022/02/22 14:00:27;;;;;;;26.20;24.60;;;;;;;;;;6216534;23;20181;-93
2022/02/22 14:03:03;;;;;;;31.38;28.77;;;;;;;;;;6216733;23;20491;-92
2022/02/22 14:05:30;;;;;;;30.50;27.90;;;;;;;;;;6217668;23;20892;-93
2022/02/22 14:07:58;;;;;;;27.33;25.15;;;;;;;;;;6218670;23;20227;-92
2022/02/22 14:10:26;;;;;;;30.95;28.60;;;;;;;;;;6216846;23;20242;-92
2022/02/22 14:12:53;;;;;;;34.55;29.30;;;;;;;;;;6217123;23;20195;-93
2022/02/22 14:15:21;;;;;;;32.45;26.73;;;;;;;;;;6216630;23;20174;-94
2022/02/22 14:17:48;;;;;;;31.75;28.75;;;;;;;;;;6216987;23;20503;-93
2022/02/22 14:20:17;;;;;;;29.55;27.15;;;;;;;;;;6216676;23;20162;-91
2022/02/22 14:22:46;;;;;;;30.60;27.70;;;;;;;;;;6217116;23;20209;-93
2022/02/22 14:25:14;;;;;;;28.55;26.02;;;;;;;;;;6218311;23;20169;-94
2022/02/22 14:27:42;;;;;;;31.67;28.83;;;;;;;;;;6217801;23;20166;-94
2022/02/22 14:30:09;;;;;;;28.88;26.88;;;;;;;;;;6217834;23;20665;-95
2022/02/22 14:32:37;;;;;;;37.00;33.90;;;;;;;;;;6217719;23;20219;-95
2022/02/22 14:35:05;;;;;;;36.03;33.42;;;;;;;;;;6218145;23;20515;-96
2022/02/22 14:37:33;;;;;;;34.03;31.10;;;;;;;;;;6220023;23;20176;-90
2022/02/22 14:40:01;;;;;;;35.60;32.20;;;;;;;;;;6218737;23;20210;-95
2022/02/22 14:42:29;;;;;;;31.27;29.58;;;;;;;;;;6217803;23;20173;-96
2022/02/22 14:44:57;;;;;;;34.78;31.90;;;;;;;;;;6218142;23;20165;-96
2022/02/22 14:47:24;;;;;;;32.60;29.35;;;;;;;;;;6219389;23;20248;-96
2022/02/22 14:49:52;;;;;;;37.80;34.17;;;;;;;;;;6219363;23;20243;-95
2022/02/22 14:52:19;;;;;;;30.95;28.98;;;;;;;;;;6219664;23;20193;-96
2022/02/22 14:54:48;;;;;;;37.50;34.42;;;;;;;;;;6220113;23;20176;-96
2022/02/22 14:57:16;;;;;;;37.85;34.33;;;;;;;;;;6217845;23;20189;-95
2022/02/22 14:59:43;;;;;;;35.40;32.60;;;;;;;;;;6217200;23;20179;-95
2022/02/22 15:02:10;;;;;;;30.40;28.70;;;;;;;;;;6217489;23;20662;-95
2022/02/22 15:04:38;;;;;;;36.67;33.30;;;;;;;;;;6218487;23;20164;-94
2022/02/22 15:07:06;;;;;;;32.40;30.40;;;;;;;;;;6217568;23;20192;-95
2022/02/22 15:09:33;;;;;;;33.95;30.52;;;;;;;;;;6191354;23;20173;-95
2022/02/22 15:12:04;;;;;;;30.30;28.40;;;;;;;;;;6218190;23;20176;-95
2022/02/22 15:14:32;;;;;;;35.63;33.22;;;;;;;;;;6190797;23;20173;-92
2022/02/22 15:16:59;;;;;;;32.50;30.40;;;;;;;;;;6205468;23;20195;-95
2022/02/22 15:19:27;;;;;;;37.15;34.60;;;;;;;;;;6217346;23;20168;-93
2022/02/22 15:21:54;;;;;;;31.65;30.05;;;;;;;;;;6217633;23;20173;-94
2022/02/22 15:24:22;;;;;;;36.60;34.35;;;;;;;;;;6216557;23;20208;-94
2022/02/22 15:26:49;;;;;;;34.22;32.40;;;;;;;;;;6217491;23;20264;-95
2022/02/22 15:29:18;;;;;;;33.20;30.98;;;;;;;;;;6217629;23;20235;-96
2022/02/22 15:31:45;;;;;;;34.03;31.92;;;;;;;;;;6218723;23;20528;-95
2022/02/22 15:34:13;;;;;;;31.80;29.70;;;;;;;;;;6217355;23;20168;-96
2022/02/22 15:36:40;;;;;;;34.25;32.22;;;;;;;;;;6217762;23;20220;-94
2022/02/22 15:39:07;;;;;;;32.08;30.38;;;;;;;;;;6216816;23;20176;-93
2022/02/22 15:41:35;;;;;;;33.92;32.10;;;;;;;;;;6217137;23;20619;-94
2022/02/22 15:44:03;;;;;;;38.70;36.58;;;;;;;;;;6190627;23;20176;-94
2022/02/22 15:46:32;;;;;;;36.13;33.58;;;;;;;;;;6190969;23;20216;-93
2022/02/22 15:48:59;;;;;;;30.75;28.95;;;;;;;;;;6178680;23;20173;-94